createdAt,value
2019-02-24T00:00:10.393Z,69.60
2019-02-24T00:02:58.493Z,79.10
2019-02-24T00:05:45.950Z,81.80
2019-02-24T00:08:33.657Z,81.90
2019-02-24T00:11:21.341Z,81.50
2019-02-24T00:14:08.764Z,82.80
2019-02-24T00:16:56.214Z,86.70
2019-02-24T00:19:43.566Z,89.60
2019-02-24T00:22:31.185Z,91.20
2019-02-24T00:25:18.565Z,92.70
2019-02-24T00:28:07.309Z,94.90
2019-02-24T00:30:54.997Z,94.60
2019-02-24T00:33:42.625Z,95.80
2019-02-24T00:36:30.301Z,96.10
2019-02-24T00:39:17.782Z,96.00
2019-02-24T00:42:05.338Z,97.70
2019-02-24T00:44:52.965Z,97.90
2019-02-24T00:47:40.621Z,96.30
2019-02-24T00:50:28.316Z,99.90
2019-02-24T00:53:15.971Z,99.90
2019-02-24T00:56:03.689Z,99.90
2019-02-24T00:58:51.545Z,99.90
2019-02-24T01:01:38.901Z,99.90
2019-02-24T01:04:26.614Z,99.90
2019-02-24T01:07:14.276Z,99.90
2019-02-24T01:10:01.958Z,99.90
2019-02-24T01:12:49.519Z,99.90
2019-02-24T01:15:37.231Z,99.90
2019-02-24T01:18:24.719Z,99.90
2019-02-24T01:21:12.069Z,99.90
2019-02-24T01:23:59.711Z,99.90
2019-02-24T01:26:47.468Z,99.90
2019-02-24T01:29:35.320Z,99.90
2019-02-24T01:32:23.048Z,99.90
2019-02-24T01:35:10.505Z,99.90
2019-02-24T01:37:58.108Z,99.90
2019-02-24T01:40:45.973Z,99.90
2019-02-24T01:43:33.592Z,99.90
2019-02-24T01:46:21.195Z,99.90
2019-02-24T01:49:08.894Z,99.90
2019-02-24T01:51:56.436Z,99.90
2019-02-24T01:54:44.137Z,99.90
2019-02-24T01:57:31.610Z,99.90
2019-02-24T02:00:19.445Z,99.90
2019-02-24T02:03:07.135Z,99.90
2019-02-24T02:05:54.607Z,99.90
2019-02-24T02:08:42.040Z,99.90
2019-02-24T02:11:29.869Z,99.90
2019-02-24T02:14:17.604Z,99.90
2019-02-24T02:17:04.944Z,99.90
2019-02-24T02:19:52.629Z,99.90
2019-02-24T02:22:40.066Z,99.90
2019-02-24T02:25:27.495Z,99.90
2019-02-24T02:28:15.047Z,99.90
2019-02-24T02:31:02.546Z,99.90
2019-02-24T02:33:50.225Z,99.90
2019-02-24T02:36:37.908Z,99.90
2019-02-24T02:39:25.539Z,99.90
2019-02-24T02:42:13.124Z,99.90
2019-02-24T02:45:00.748Z,99.90
2019-02-24T02:47:48.110Z,99.90
2019-02-24T02:50:35.801Z,99.90
2019-02-24T02:53:23.408Z,99.90
2019-02-24T02:56:13.048Z,99.90
2019-02-24T02:59:00.169Z,99.90
2019-02-24T03:01:47.652Z,99.90
2019-02-24T03:04:35.329Z,99.90
2019-02-24T03:07:24.442Z,99.90
2019-02-24T03:10:11.768Z,99.90
2019-02-24T03:12:59.484Z,99.90
2019-02-24T03:15:47.225Z,99.90
2019-02-24T03:18:34.997Z,99.90
2019-02-24T03:21:22.394Z,99.90
2019-02-24T03:24:09.837Z,99.90
2019-02-24T03:26:57.264Z,99.90
2019-02-24T03:29:44.897Z,99.90
2019-02-24T03:32:32.725Z,99.90
2019-02-24T03:35:20.345Z,99.90
2019-02-24T03:38:07.944Z,99.90
2019-02-24T03:40:55.545Z,99.90
2019-02-24T03:43:43.177Z,99.90
2019-02-24T03:46:30.604Z,99.90
2019-02-24T03:49:18.228Z,99.90
2019-02-24T03:52:05.632Z,99.90
2019-02-24T03:54:53.415Z,99.90
2019-02-24T03:57:40.929Z,99.90
2019-02-24T04:00:28.666Z,99.90
2019-02-24T04:03:16.363Z,99.90
2019-02-24T04:06:03.881Z,99.90
2019-02-24T04:08:51.355Z,99.90
2019-02-24T04:11:38.970Z,99.90
2019-02-24T04:14:26.696Z,99.90
2019-02-24T04:17:14.075Z,99.90
2019-02-24T04:20:01.538Z,99.90
2019-02-24T04:22:49.187Z,99.90
2019-02-24T04:25:37.065Z,99.90
2019-02-24T04:28:24.719Z,99.90
2019-02-24T04:31:12.110Z,99.90
2019-02-24T04:33:59.683Z,99.90
2019-02-24T04:36:47.514Z,99.90
2019-02-24T04:39:35.220Z,99.90
2019-02-24T04:42:22.776Z,99.90
2019-02-24T04:45:10.263Z,99.90
2019-02-24T04:47:57.856Z,99.90
2019-02-24T04:50:45.608Z,99.90
2019-02-24T04:53:33.145Z,99.90
2019-02-24T04:56:20.943Z,99.90
2019-02-24T04:59:08.778Z,99.90
2019-02-24T05:01:56.261Z,99.90
2019-02-24T05:04:43.908Z,99.90
2019-02-24T05:07:31.773Z,99.90
2019-02-24T05:10:19.265Z,99.90
2019-02-24T05:13:06.951Z,99.90
2019-02-24T05:15:54.429Z,99.90
2019-02-24T05:18:42.084Z,99.90
2019-02-24T05:21:29.788Z,99.90
2019-02-24T05:24:17.240Z,99.90
2019-02-24T05:27:04.703Z,99.90
2019-02-24T05:29:52.084Z,99.90
2019-02-24T05:32:39.766Z,99.90
2019-02-24T05:35:27.394Z,99.90
2019-02-24T05:38:15.189Z,99.90
2019-02-24T05:41:02.882Z,99.90
2019-02-24T05:43:50.349Z,99.90
2019-02-24T05:46:38.056Z,99.90
2019-02-24T05:49:25.488Z,99.90
2019-02-24T05:52:13.188Z,99.90
2019-02-24T05:55:00.583Z,99.90
2019-02-24T05:57:48.172Z,99.90
2019-02-24T06:00:35.477Z,99.90
2019-02-24T06:03:22.917Z,99.90
2019-02-24T06:06:10.646Z,99.90
2019-02-24T06:08:58.316Z,99.90
2019-02-24T06:11:46.000Z,99.90
2019-02-24T06:14:33.675Z,99.90
2019-02-24T06:17:21.107Z,99.90
2019-02-24T06:20:08.460Z,99.90
2019-02-24T06:22:56.016Z,99.90
2019-02-24T06:25:43.709Z,99.90
2019-02-24T06:28:31.828Z,99.90
2019-02-24T06:31:19.437Z,99.90
2019-02-24T06:34:06.888Z,99.90
2019-02-24T06:36:54.342Z,99.90
2019-02-24T06:39:42.001Z,99.90
2019-02-24T06:42:29.481Z,99.90
2019-02-24T06:45:17.134Z,99.90
2019-02-24T06:48:04.780Z,99.90
2019-02-24T06:51:00.026Z,99.90
2019-02-24T06:53:47.580Z,99.90
2019-02-24T06:56:35.146Z,99.90
2019-02-24T06:59:22.833Z,99.90
2019-02-24T07:02:10.500Z,99.90
2019-02-24T07:04:58.216Z,99.90
2019-02-24T07:07:46.024Z,99.90
2019-02-24T07:10:33.698Z,99.90
2019-02-24T07:13:21.304Z,99.90
2019-02-24T07:16:09.024Z,99.90
2019-02-24T07:18:56.785Z,99.90
2019-02-24T07:21:44.252Z,99.90
2019-02-24T07:24:31.972Z,99.90
2019-02-24T07:27:19.585Z,99.90
2019-02-24T07:30:09.256Z,99.90
2019-02-24T07:32:56.893Z,99.90
2019-02-24T07:35:44.484Z,99.90
2019-02-24T07:38:32.328Z,99.90
2019-02-24T07:41:19.754Z,99.90
2019-02-24T07:44:07.180Z,99.90
2019-02-24T07:46:54.803Z,99.90
2019-02-24T07:49:43.940Z,99.90
2019-02-24T07:52:31.613Z,99.90
2019-02-24T07:55:19.207Z,99.90
2019-02-24T07:58:06.888Z,99.90
2019-02-24T08:00:54.484Z,99.90
2019-02-24T08:03:41.899Z,99.90
2019-02-24T08:06:29.664Z,99.90
2019-02-24T08:09:17.202Z,99.90
2019-02-24T08:12:04.949Z,99.90
2019-02-24T08:14:52.499Z,99.90
2019-02-24T08:17:40.249Z,99.90
2019-02-24T08:20:28.048Z,99.90
2019-02-24T08:23:15.512Z,99.90
2019-02-24T08:26:03.163Z,99.90
2019-02-24T08:28:50.934Z,99.90
2019-02-24T08:31:38.328Z,98.10
2019-02-24T08:34:25.814Z,96.10
2019-02-24T08:37:13.412Z,95.80
2019-02-24T08:40:01.067Z,91.80
2019-02-24T08:42:48.477Z,82.00
2019-02-24T08:45:36.030Z,80.60
2019-02-24T08:48:24.571Z,77.20
2019-02-24T08:51:29.096Z,75.10
2019-02-24T08:54:16.572Z,68.00
2019-02-24T08:57:03.972Z,68.70
2019-02-24T08:59:51.412Z,68.20
2019-02-24T09:02:39.206Z,64.00
2019-02-24T09:05:26.936Z,64.10
2019-02-24T09:08:14.307Z,62.50
2019-02-24T09:11:01.741Z,62.70
2019-02-24T09:13:49.392Z,61.10
2019-02-24T09:16:36.944Z,60.60
2019-02-24T09:19:24.520Z,59.40
2019-02-24T09:22:12.551Z,58.00
2019-02-24T09:25:00.288Z,58.60
2019-02-24T09:27:47.909Z,57.20
2019-02-24T09:30:35.542Z,58.60
2019-02-24T09:33:22.984Z,57.60
2019-02-24T09:36:10.604Z,58.60
2019-02-24T09:38:58.213Z,57.00
2019-02-24T09:41:45.944Z,56.40
2019-02-24T09:44:33.236Z,53.40
2019-02-24T09:47:20.913Z,51.20
2019-02-24T09:50:09.368Z,49.90
2019-02-24T09:52:56.974Z,48.90
2019-02-24T09:55:44.305Z,48.40
2019-02-24T09:58:31.908Z,48.30
2019-02-24T10:01:19.554Z,48.00
2019-02-24T10:04:07.353Z,47.20
2019-02-24T10:06:54.938Z,45.30
2019-02-24T10:09:42.323Z,44.30
2019-02-24T10:12:29.994Z,45.40
2019-02-24T10:15:17.407Z,45.40
2019-02-24T10:18:05.011Z,44.10
2019-02-24T10:20:52.704Z,42.20
2019-02-24T10:23:40.159Z,40.50
2019-02-24T10:26:27.833Z,39.70
2019-02-24T10:29:15.105Z,39.50
2019-02-24T10:32:02.759Z,37.30
2019-02-24T10:34:50.314Z,38.00
2019-02-24T10:37:37.632Z,36.40
2019-02-24T10:40:25.013Z,35.20
2019-02-24T10:43:12.741Z,34.10
2019-02-24T10:46:00.293Z,35.20
2019-02-24T10:48:47.944Z,32.90
2019-02-24T10:51:35.593Z,32.50
2019-02-24T10:54:23.484Z,30.80
2019-02-24T10:57:13.021Z,31.60
2019-02-24T11:00:00.435Z,32.20
2019-02-24T11:02:48.151Z,30.00
2019-02-24T11:05:35.698Z,31.00
2019-02-24T11:08:23.237Z,32.70
2019-02-24T11:11:10.899Z,33.20
2019-02-24T11:13:58.550Z,31.60
2019-02-24T11:16:46.121Z,32.20
2019-02-24T11:19:33.816Z,31.70
2019-02-24T11:22:21.140Z,31.40
2019-02-24T11:25:10.409Z,31.70
2019-02-24T11:27:58.137Z,32.80
2019-02-24T11:30:45.834Z,32.00
2019-02-24T11:33:33.533Z,31.30
2019-02-24T11:36:20.964Z,31.80
2019-02-24T11:39:08.785Z,32.10
2019-02-24T11:41:56.137Z,31.50
2019-02-24T11:44:43.540Z,32.00
2019-02-24T11:47:31.044Z,30.50
2019-02-24T11:50:18.714Z,30.40
2019-02-24T11:53:06.377Z,30.00
2019-02-24T11:55:54.108Z,29.60
2019-02-24T11:58:41.737Z,29.80
2019-02-24T12:01:29.202Z,29.80
2019-02-24T12:04:16.837Z,29.90
2019-02-24T12:07:04.480Z,30.00
2019-02-24T12:09:51.841Z,30.40
2019-02-24T12:12:39.366Z,28.00
2019-02-24T12:15:27.075Z,28.60
2019-02-24T12:18:14.874Z,30.80
2019-02-24T12:21:02.553Z,30.00
2019-02-24T12:23:50.260Z,28.60
2019-02-24T12:26:37.696Z,28.70
2019-02-24T12:29:25.440Z,28.70
2019-02-24T12:32:12.861Z,26.50
2019-02-24T12:35:00.563Z,27.00
2019-02-24T12:37:48.368Z,27.20
2019-02-24T12:40:36.091Z,27.40
2019-02-24T12:43:23.793Z,26.70
2019-02-24T12:46:11.458Z,28.00
2019-02-24T12:48:58.820Z,27.50
2019-02-24T12:51:46.285Z,26.60
2019-02-24T12:54:33.635Z,25.90
2019-02-24T12:57:21.414Z,26.10
2019-02-24T13:00:24.039Z,26.50
2019-02-24T13:03:12.206Z,29.10
2019-02-24T13:05:59.788Z,29.30
2019-02-24T13:08:47.464Z,28.70
2019-02-24T13:11:34.880Z,28.70
2019-02-24T13:14:22.531Z,28.40
2019-02-24T13:17:10.057Z,29.00
2019-02-24T13:19:57.939Z,29.10
2019-02-24T13:22:45.364Z,28.30
2019-02-24T13:25:32.693Z,29.60
2019-02-24T13:28:20.286Z,28.90
2019-02-24T13:31:07.816Z,27.30
2019-02-24T13:33:55.261Z,27.00
2019-02-24T13:36:42.943Z,27.80
2019-02-24T13:39:30.627Z,27.90
2019-02-24T13:42:18.150Z,27.20
2019-02-24T13:45:08.565Z,27.90
2019-02-24T13:47:55.914Z,27.50
2019-02-24T13:50:43.388Z,28.10
2019-02-24T13:53:30.828Z,27.80
2019-02-24T13:56:18.588Z,27.50
2019-02-24T13:59:06.237Z,27.30
2019-02-24T14:01:53.688Z,27.30
2019-02-24T14:04:41.274Z,27.80
2019-02-24T14:07:28.899Z,28.00
2019-02-24T14:10:16.641Z,27.90
2019-02-24T14:13:04.147Z,27.80
2019-02-24T14:15:51.789Z,28.70
2019-02-24T14:18:39.320Z,28.40
2019-02-24T14:21:27.011Z,28.00
2019-02-24T14:24:14.732Z,28.00
2019-02-24T14:27:02.216Z,28.50
2019-02-24T14:29:49.884Z,27.80
2019-02-24T14:32:37.433Z,27.50
2019-02-24T14:35:26.545Z,27.90
2019-02-24T14:38:13.960Z,28.10
2019-02-24T14:41:01.361Z,28.10
2019-02-24T14:43:48.860Z,27.60
2019-02-24T14:46:36.184Z,27.60
2019-02-24T14:49:23.596Z,27.40
2019-02-24T14:52:11.024Z,26.70
2019-02-24T14:54:58.793Z,27.20
2019-02-24T14:57:46.152Z,27.40
2019-02-24T15:00:33.784Z,26.70
2019-02-24T15:03:21.600Z,27.20
2019-02-24T15:06:09.256Z,27.80
2019-02-24T15:08:56.869Z,27.80
2019-02-24T15:11:44.268Z,28.00
2019-02-24T15:14:31.960Z,28.00
2019-02-24T15:17:19.568Z,28.00
2019-02-24T15:20:18.557Z,27.90
2019-02-24T15:23:06.760Z,27.80
2019-02-24T15:25:54.705Z,28.40
2019-02-24T15:28:42.334Z,28.50
2019-02-24T15:31:30.052Z,27.90
2019-02-24T15:34:17.752Z,27.70
2019-02-24T15:37:05.383Z,27.90
2019-02-24T15:39:52.796Z,27.70
2019-02-24T15:42:40.588Z,27.20
2019-02-24T15:45:28.315Z,27.30
2019-02-24T15:48:15.993Z,27.50
2019-02-24T15:51:03.700Z,27.10
2019-02-24T15:53:51.272Z,26.80
2019-02-24T15:56:38.671Z,27.60
2019-02-24T15:59:26.272Z,27.90
2019-02-24T16:02:13.754Z,26.70
2019-02-24T16:05:01.236Z,27.10
2019-02-24T16:07:48.710Z,27.10
2019-02-24T16:10:36.169Z,27.20
2019-02-24T16:13:23.673Z,26.80
2019-02-24T16:16:11.189Z,27.10
2019-02-24T16:18:58.845Z,27.40
2019-02-24T16:21:46.502Z,27.40
2019-02-24T16:24:34.072Z,27.60
2019-02-24T16:27:21.700Z,27.70
2019-02-24T16:30:14.504Z,27.80
2019-02-24T16:33:10.000Z,27.50
2019-02-24T16:35:51.126Z,27.80
2019-02-24T16:38:38.877Z,27.50
2019-02-24T16:41:26.481Z,27.90
2019-02-24T16:44:13.928Z,28.00
2019-02-24T16:47:01.616Z,28.00
2019-02-24T16:49:49.472Z,28.10
2019-02-24T16:52:37.257Z,28.50
2019-02-24T16:55:25.015Z,28.70
2019-02-24T16:58:12.485Z,29.10
2019-02-24T17:01:00.239Z,29.80
2019-02-24T17:03:47.892Z,30.10
2019-02-24T17:06:35.481Z,30.40
2019-02-24T17:09:23.201Z,31.20
2019-02-24T17:12:10.661Z,32.10
2019-02-24T17:14:58.081Z,32.70
2019-02-24T17:17:45.813Z,33.30
2019-02-24T17:20:33.317Z,34.80
2019-02-24T17:23:20.648Z,35.50
2019-02-24T17:26:08.260Z,36.30
2019-02-24T17:28:55.917Z,36.60
2019-02-24T17:31:43.318Z,37.40
2019-02-24T17:34:30.892Z,37.90
2019-02-24T17:37:20.266Z,38.20
2019-02-24T17:40:10.800Z,38.60
2019-02-24T17:42:58.327Z,39.10
2019-02-24T17:45:45.976Z,39.70
2019-02-24T17:48:33.520Z,40.10
2019-02-24T17:51:21.817Z,40.40
2019-02-24T17:54:09.844Z,40.30
2019-02-24T17:56:57.417Z,40.80
2019-02-24T17:59:45.072Z,42.00
2019-02-24T18:02:32.549Z,41.90
2019-02-24T18:05:20.338Z,42.30
2019-02-24T18:08:07.746Z,42.70
2019-02-24T18:10:55.343Z,44.70
2019-02-24T18:13:42.984Z,46.20
2019-02-24T18:16:30.659Z,47.10
2019-02-24T18:19:18.084Z,47.50
2019-02-24T18:22:05.765Z,47.60
2019-02-24T18:25:02.704Z,48.00
2019-02-24T18:27:43.346Z,47.90
2019-02-24T18:30:31.329Z,47.80
2019-02-24T18:33:18.779Z,48.90
2019-02-24T18:36:06.472Z,50.20
2019-02-24T18:38:53.906Z,52.60
2019-02-24T18:41:41.520Z,53.70
2019-02-24T18:44:28.884Z,53.50
2019-02-24T18:47:16.616Z,52.40
2019-02-24T18:50:06.296Z,54.00
2019-02-24T18:52:54.215Z,55.20
2019-02-24T18:55:41.801Z,54.30
2019-02-24T18:58:29.632Z,56.20
2019-02-24T19:01:17.072Z,59.40
2019-02-24T19:04:04.476Z,59.40
2019-02-24T19:06:52.131Z,58.70
2019-02-24T19:09:39.902Z,58.60
2019-02-24T19:12:27.596Z,59.30
2019-02-24T19:15:16.807Z,60.40
2019-02-24T19:18:04.164Z,61.10
2019-02-24T19:20:51.944Z,63.60
2019-02-24T19:23:39.601Z,64.60
2019-02-24T19:26:27.371Z,70.40
2019-02-24T19:29:15.065Z,70.90
2019-02-24T19:32:05.519Z,72.40
2019-02-24T19:34:53.432Z,74.50
2019-02-24T19:37:40.793Z,75.80
2019-02-24T19:40:28.499Z,78.90
2019-02-24T19:43:16.345Z,81.00
2019-02-24T19:46:03.709Z,83.00
2019-02-24T19:48:51.594Z,86.70
2019-02-24T19:51:39.356Z,89.50
2019-02-24T19:54:27.178Z,91.70
2019-02-24T19:57:14.609Z,93.40
2019-02-24T20:00:02.224Z,93.50
2019-02-24T20:02:49.972Z,95.10
2019-02-24T20:05:37.547Z,96.00
2019-02-24T20:08:25.156Z,95.80
2019-02-24T20:11:12.765Z,97.60
2019-02-24T20:14:00.524Z,98.70
2019-02-24T20:16:48.334Z,99.00
2019-02-24T20:19:35.709Z,99.90
2019-02-24T20:22:23.437Z,99.90
2019-02-24T20:25:18.362Z,99.90
2019-02-24T20:28:05.802Z,99.90
2019-02-24T20:30:53.634Z,99.90
2019-02-24T20:33:41.033Z,99.90
2019-02-24T20:36:28.535Z,99.90
2019-02-24T20:39:16.302Z,99.90
2019-02-24T20:42:03.659Z,99.90
2019-02-24T20:44:51.205Z,99.90
2019-02-24T20:47:38.864Z,99.90
2019-02-24T20:50:29.270Z,99.90
2019-02-24T20:53:16.665Z,99.90
2019-02-24T20:56:04.268Z,99.90
2019-02-24T20:58:51.703Z,99.90
2019-02-24T21:01:39.448Z,99.90
2019-02-24T21:04:27.080Z,99.90
2019-02-24T21:07:14.525Z,99.90
2019-02-24T21:10:01.950Z,99.90
2019-02-24T21:12:49.849Z,99.90
2019-02-24T21:15:37.584Z,99.90
2019-02-24T21:18:25.162Z,99.90
2019-02-24T21:21:12.790Z,99.90
2019-02-24T21:24:00.065Z,99.90
2019-02-24T21:26:47.718Z,99.90
2019-02-24T21:29:35.481Z,99.90
2019-02-24T21:32:23.158Z,99.90
2019-02-24T21:35:11.333Z,99.90
2019-02-24T21:37:58.876Z,99.90
2019-02-24T21:40:46.710Z,99.90
2019-02-24T21:43:34.387Z,99.90
2019-02-24T21:46:21.856Z,99.90
2019-02-24T21:49:09.484Z,99.90
2019-02-24T21:51:57.167Z,99.90
2019-02-24T21:54:44.912Z,99.90
2019-02-24T21:57:32.602Z,99.90
2019-02-24T22:00:23.145Z,99.90
2019-02-24T22:03:10.880Z,99.90
2019-02-24T22:05:58.598Z,99.90
2019-02-24T22:08:46.146Z,99.90
2019-02-24T22:11:33.706Z,99.90
2019-02-24T22:14:21.084Z,99.90
2019-02-24T22:17:08.540Z,99.90
2019-02-24T22:19:55.992Z,99.90
2019-02-24T22:22:43.783Z,99.90
2019-02-24T22:25:31.492Z,99.90
2019-02-24T22:28:19.026Z,99.90
2019-02-24T22:31:06.437Z,99.90
2019-02-24T22:33:53.860Z,99.90
2019-02-24T22:36:41.595Z,99.90
2019-02-24T22:39:29.231Z,99.90
2019-02-24T22:42:17.049Z,99.90
2019-02-24T22:45:08.430Z,99.90
2019-02-24T22:47:55.861Z,99.90
2019-02-24T22:50:43.697Z,99.90
2019-02-24T22:53:31.091Z,99.90
2019-02-24T22:56:18.644Z,99.90
2019-02-24T22:59:06.289Z,99.90
2019-02-24T23:01:54.083Z,99.90
2019-02-24T23:04:41.421Z,99.90
2019-02-24T23:07:28.917Z,99.90
2019-02-24T23:10:16.376Z,99.90
2019-02-24T23:13:03.935Z,99.90
2019-02-24T23:15:51.509Z,99.90
2019-02-24T23:18:39.029Z,99.90
2019-02-24T23:21:26.420Z,99.90
2019-02-24T23:24:13.901Z,99.90
2019-02-24T23:27:01.349Z,99.90
2019-02-24T23:29:48.821Z,99.90
2019-02-24T23:32:36.474Z,99.90
2019-02-24T23:35:23.828Z,99.90
2019-02-24T23:38:11.581Z,99.90
2019-02-24T23:40:59.246Z,99.90
2019-02-24T23:43:46.873Z,99.90
2019-02-24T23:46:34.541Z,99.90
2019-02-24T23:49:22.274Z,99.90
2019-02-24T23:52:09.678Z,99.90
2019-02-24T23:54:57.376Z,99.90
2019-02-24T23:57:44.794Z,99.90
